Nowcasting inverno '19/'20

Area dedicata a nowcasting, previsioni del tempo e discussioni sul tempo che verrà.

Re: Nowcasting inverno '19/'20

Messaggioda Franco52 » 6 dic 2019, 10:45

Immagine

Immagine

Immagine

Immagine




Buongiorno a tutti



Forlì Giovedì 06 Dicembre 2019



Questa Mattina a Forlì alle h 09,33 la Temperatura è di 6,1 °C , la Minima di 2,6 °C , Nuvoloso , Foschia , Vento da NW , Raffica max vento 3,2 km/h e l'Umidità è del 69 %


Osservatorio Meteorologico di Forlì Ronco Rotonda Aeroporto ( FC ) Altitudine 43 mt. s.l.m.
LATIT 44.12,21 - LONG 12.04,37


Ultimo Aggiornamento del 06 - 12 - 2019 h 09 : 16 : 00



Temperatura

Attuale 6,0 °C
HEAT 5,6 °C
Min 2,6 °C
Max 6,0 °C

Umidità

Attuale 70 %
Dew Point 0,9 °C
Pressione 1025,7 hPa ( Stabile )


Vento

Attuale 0,0 km/h da SW
Raffica massima 0,0 km/h
Velocità Media 0,0 km/h da SW


Pioggia

Oggi 0,0 mm
Rain Storm 0,0 mm
Rain Rate min 0,0 mm/h
Rain Rate 0,0 mm/h
Mese 35,8 mm
Anno 786,1 mm


Nuvoloso , Foschia


la Situazione Italiana vista dal Sat

Immagine

Immagine




Mappa SWLL delle 6z e delle 12z




Immagine

Immagine




il Radar Europeo


Immagine

Immagine

Immagine



le TAF delle 5z Prevedono




Nuvoloso con Foschia




BOLOGNA

TAF LIPE 060500Z 0606/0706 VRB04KT 6000 SCT040=

FORLI'

DATI NON PERVENUTI

CERVIA

TAF LIPC 060500Z 0606/0615 25006KT CAVOK TEMPO 0606/0608 5000 BR=

RIMINI

TAF LIPR 060500Z 0606/0615 VRB04KT 7000 BKN060=









:ciao: :ciao:
Avatar utente
Franco52
 
Messaggi: 1803
Iscritto il: 14 ott 2012, 13:05
Località: Forlì Ronco rotonda Aeroporto

Re: Nowcasting inverno '19/'20

Messaggioda Geloneve » 7 dic 2019, 9:55

Cielo quasi velato, vento assente e temperatura minima di +0,8°c.

Ieri temperatura massima di +8,8°c.
W il GELO e la NEVE!
==============================================================================================
Stazione meteo Davis Vantage Pro 2 - Loc. San Biagio - Faenza (RA) - 32 m. S.L.M. - tra Faenza e Forlì, a 851 m. dal comune di Forlì: http://geloneve.dyndns.org/ Webcam: http://www.geloneve.it/webcam2/sanbiagio.jpg
Avatar utente
Geloneve
 
Messaggi: 10571
Iscritto il: 19 nov 2010, 17:17
Località: San Biagio (RA) - 32 m. S.L.M. - Tra Forlì (FC) e Faenza (RA), a 851 m. dal comune di Forlì (FC)

Re: Nowcasting inverno '19/'20

Messaggioda Franco52 » 7 dic 2019, 10:39

Immagine

Immagine

Immagine

Immagine



Buongiorno a tutti



Forlì Sabato 07 Dicembre 2019



Questa Mattina a Forlì alle h 09,26 la Temperatura è di 4,3 °C , la Minima di 3,5 °C , Nuvoloso , Foschia , Vento da SW , Raffica max vento 4,8 km/h e l'Umidità è del 69 %


Osservatorio Meteorologico di Forlì Ronco Rotonda Aeroporto ( FC ) Altitudine 43 mt. s.l.m.
LATIT 44.12,21 - LONG 12.04,37


Ultimo Aggiornamento del 07 - 12 - 2019 h 09 : 06 : 00



Temperatura

Attuale 4,0 °C
HEAT 3,6 °C
Min 3,5 °C
Max 5,3 °C

Umidità

Attuale 69 %
Dew Point -1,2 °C
Pressione 1019,3 hPa ( Stabile )


Vento

Attuale 0,0 km/h da SW
Raffica massima 4,8 km/h
Velocità Media 0,0 km/h da SW


Pioggia

Oggi 0,0 mm
Rain Storm 0,0 mm
Rain Rate min 0,0 mm/h
Rain Rate 0,0 mm/h
Mese 36,1 mm
Anno 786,4 mm


Nuvoloso , Foschia


la Situazione Italiana vista dal Sat

Immagine

Immagine




Mappa SWLL delle 6z e delle 12z




Immagine

Immagine




il Radar Europeo


Immagine

Immagine

Immagine



le TAF delle 5z Prevedono




Nuvoloso con Foschia



BOLOGNA

TAF LIPE 070500Z 0706/0806 VRB04KT 3000 BR SCT020 BECMG 0707/0709 6000=

FORLI'

DATI NON PERVENUTI

CERVIA

TAF LIPC 070500Z 0706/0715 28006KT 8000 BKN040 TEMPO 0706/0708 3000 BR=

RIMINI

TAF LIPR 070500Z 0706/0715 VRB04KT 3000 BR SCT060 BECMG 0707/0709 6000=









:ciao: :ciao:
Avatar utente
Franco52
 
Messaggi: 1803
Iscritto il: 14 ott 2012, 13:05
Località: Forlì Ronco rotonda Aeroporto

Re: Nowcasting inverno '19/'20

Messaggioda Geloneve » 8 dic 2019, 8:55

Cielo quasi nuvoloso, vento assente e temperatura minima di -0,1°c.

Ieri temperatura massima di +11,2°c.
W il GELO e la NEVE!
==============================================================================================
Stazione meteo Davis Vantage Pro 2 - Loc. San Biagio - Faenza (RA) - 32 m. S.L.M. - tra Faenza e Forlì, a 851 m. dal comune di Forlì: http://geloneve.dyndns.org/ Webcam: http://www.geloneve.it/webcam2/sanbiagio.jpg
Avatar utente
Geloneve
 
Messaggi: 10571
Iscritto il: 19 nov 2010, 17:17
Località: San Biagio (RA) - 32 m. S.L.M. - Tra Forlì (FC) e Faenza (RA), a 851 m. dal comune di Forlì (FC)

Re: Nowcasting inverno '19/'20

Messaggioda Franco52 » 8 dic 2019, 11:21

Immagine

Immagine

Immagine

Immagine




Buongiorno e Buoa Domenica a tutti



Forlì Domenica 08 Dicembre 2019



Questa Mattina a Forlì alle h 10,10 la Temperatura è di 6,4 °C , la Minima di 3,9 °C , Nuvoloso , Foschia , Vento da S , Raffica max vento 8,0 km/h e l'Umidità è del 70 %


Osservatorio Meteorologico di Forlì Ronco Rotonda Aeroporto ( FC ) Altitudine 43 mt. s.l.m.
LATIT 44.12,21 - LONG 12.04,37


Ultimo Aggiornamento del 08 - 12 - 2019 h 09 : 51 : 00



Temperatura

Attuale 6,1 °C
HEAT 5,8 °C
Min 3,9 °C
Max 6,2 °C

Umidità

Attuale 69 %
Dew Point +0,8 °C
Pressione 1021,1 hPa ( Stabile )


Vento

Attuale 0,0 km/h da S
Raffica massima 8,0 km/h
Velocità Media 0,0 km/h da S


Pioggia

Oggi 0,0 mm
Rain Storm 0,0 mm
Rain Rate min 0,0 mm/h
Rain Rate 0,0 mm/h
Mese 36,1 mm
Anno 786,4 mm


Nuvoloso , Foschia


la Situazione Italiana vista dal Sat

Immagine

Immagine




Mappa SWLL delle 6z e delle 12z




Immagine

Immagine



il Radar Europeo


Immagine

Immagine

Immagine



le TAF delle 5z Prevedono




Nuvoloso con Foschia , Nebbia nelle prime ore del Nattino



BOLOGNA

TAF LIPE 080500Z 0806/0906 VRB04KT 3000 BR NSC PROB040 TEMPO 0806/0808 0800 FG BKN004 BECMG 0808/0810 6000 BECMG 0817/0820 2000 BR TEMPO 0821/0906 0800 FG BKN004=

FORLI'

DATI NON PERVENUTI

CERVIA

TAF LIPC 080500Z 0806/0815 25003KT 2000 BR SCT040 PROB40 TEMPO 0806/0808 1500 BR BKN015 BECMG 0809/0811 7000 BKN030=

RIMINI

TAF LIPR 080500Z 0806/0815 VRB04KT 2500 BR NSC BECMG 0807/0809 4000 BECMG 0810/0812 7000=









:ciao: :ciao:
Avatar utente
Franco52
 
Messaggi: 1803
Iscritto il: 14 ott 2012, 13:05
Località: Forlì Ronco rotonda Aeroporto

Re: Nowcasting inverno '19/'20

Messaggioda Geloneve » 9 dic 2019, 7:31

Cielo quasi nuvoloso, vento assente e temperatura minima di +4,9°c.

Ieri temperatura massima di +11,7°c.
W il GELO e la NEVE!
==============================================================================================
Stazione meteo Davis Vantage Pro 2 - Loc. San Biagio - Faenza (RA) - 32 m. S.L.M. - tra Faenza e Forlì, a 851 m. dal comune di Forlì: http://geloneve.dyndns.org/ Webcam: http://www.geloneve.it/webcam2/sanbiagio.jpg
Avatar utente
Geloneve
 
Messaggi: 10571
Iscritto il: 19 nov 2010, 17:17
Località: San Biagio (RA) - 32 m. S.L.M. - Tra Forlì (FC) e Faenza (RA), a 851 m. dal comune di Forlì (FC)

Re: Nowcasting inverno '19/'20

Messaggioda Franco52 » 9 dic 2019, 10:52

Immagine

Immagine

Immagine

Immagine




Buongiorno a tutti



Forlì Lunedì 09 Dicembre 2019



Questa Mattina a Forlì alle h 09,39 la Temperatura è di 7,2 °C , la Minima di 6,9 °C , Nuvoloso , Foschia , Vento da W NW , Raffica max vento 16,1 km/h e l'Umidità è del 70 %


Osservatorio Meteorologico di Forlì Ronco Rotonda Aeroporto ( FC ) Altitudine 43 mt. s.l.m.
LATIT 44.12,21 - LONG 12.04,37


Ultimo Aggiornamento del 09 - 12 - 2019 h 09 : 21 : 00



Temperatura

Attuale 7,2 °C
HEAT 6,9 °C
Min 6,9 °C
Max 8,1 °C

Umidità

Attuale 70 %
Dew Point 2,1 °C
Pressione 1007,1 hPa ( in Calo 3 mlb/h )


Vento

Attuale 4,8 km/h da W NW
Raffica massima 16,1 km/h
Velocità Media 4,8 km/h da W NW


Pioggia

Oggi 0,0 mm
Rain Storm 0,0 mm
Rain Rate min 0,0 mm/h
Rain Rate 0,0 mm/h
Mese 36,1 mm
Anno 786,4 mm


Nuvoloso , Foschia


la Situazione Italiana vista dal Sat

Immagine

Immagine




Mappa SWLL delle 6z e delle 12z




Immagine

Immagine




il Radar Europeo


Immagine

Immagine

Immagine



le TAF delle 5z Prevedono




da Nuvoloso a molto Nuvoloso con possibilità di Pioggia



BOLOGNA

TAF LIPE 090500Z 0906/1006 VRB03KT 1500 BR BKN040 TEMPO 0906/0908 0600 FG BKN003 BECMG 0908/0910 4000 TEMPO 0909/0913 RA TEMPO 1000/1006 2000 BR=

FORLI'

DATI NON PERVENUTI

CERVIA

TAF LIPC 090500Z 0906/0915 29006KT 3000 BR BKN050 TEMPO 0909/0915 1500 RA BR=

RIMINI

TAF LIPR 090500Z 0906/0915 VRB03KT 4000 BR BKN050 TEMPO 0906/0914 RA=









:ciao: :ciao:
Avatar utente
Franco52
 
Messaggi: 1803
Iscritto il: 14 ott 2012, 13:05
Località: Forlì Ronco rotonda Aeroporto

Re: Nowcasting inverno '19/'20

Messaggioda Geloneve » 10 dic 2019, 7:08

Cielo quasi nuvoloso, vento assente e temperatura minima di +6,8°c.

Ieri caduti 2,2 mm di pioggia e temperatura massima di +7,9°c.

Accumulo piovoso anno che è salito a 900,4 mm.
W il GELO e la NEVE!
==============================================================================================
Stazione meteo Davis Vantage Pro 2 - Loc. San Biagio - Faenza (RA) - 32 m. S.L.M. - tra Faenza e Forlì, a 851 m. dal comune di Forlì: http://geloneve.dyndns.org/ Webcam: http://www.geloneve.it/webcam2/sanbiagio.jpg
Avatar utente
Geloneve
 
Messaggi: 10571
Iscritto il: 19 nov 2010, 17:17
Località: San Biagio (RA) - 32 m. S.L.M. - Tra Forlì (FC) e Faenza (RA), a 851 m. dal comune di Forlì (FC)

Re: Nowcasting inverno '19/'20

Messaggioda Franco52 » 10 dic 2019, 11:32

Immagine

Immagine

Immagine

Immagine



Buongiorno a tutti



Forlì Martedì 10 Dicembre 2019



Questa Mattina a Forlì alle h 10,18 la Temperatura è di 8,1 °C , la Minima di 6,8 °C , Nuvoloso , Foschia , Vento da W NW , Raffica max vento 22,5 km/h e l'Umidità è del 71 %


Osservatorio Meteorologico di Forlì Ronco Rotonda Aeroporto ( FC ) Altitudine 43 mt. s.l.m.
LATIT 44.12,21 - LONG 12.04,37


Ultimo Aggiornamento del 10 - 12 - 2019 h 09 : 31 : 00



Temperatura

Attuale 7,3 °C
HEAT 7,1 °C
Min 6,8 °C
Max 7,7 °C

Umidità

Attuale 70 %
Dew Point 2,2 °C
Pressione 1015,3 hPa ( in Aumento 5 mlb/h )


Vento

Attuale 1,6 km/h da NW
Raffica massima 22,5 km/h
Velocità Media 1,6 km/h da NW


Pioggia

Oggi 0,0 mm
Rain Storm 0,8 mm
Rain Rate min 0,0 mm/h
Rain Rate 0,0 mm/h
Mese 36,8 mm
Anno 787,1 mm


Nuvoloso , Foschia


la Situazione Italiana vista dal Sat

Immagine

Immagine




Mappa SWLL delle 6z e delle 12z



Immagine

Immagine

Immagine




il Radar Europeo


Immagine

Immagine

Immagine



le TAF delle 5z Prevedono




Nuvoloso con Nebbia alta , Nessuna Nube Significativa




BOLOGNA

TAF LIPE 100500Z 1006/1106 VRB03KT 3500 BR BKN010 BECMG 1006/1008 30010KT CAVOK=

FORLI'

DATI NON PERVENUTI

CERVIA

TAF LIPC 100500Z 1006/1015 03005KT 1500 BR SCT010 BECMG 1006/1009 5000 BR NSC=

RIMINI

TAF LIPR 100500Z 1006/1015 30014KT 3000 BR BKN010 BECMG 1006/1008 8000 SCT020=









:ciao: :ciao:
Avatar utente
Franco52
 
Messaggi: 1803
Iscritto il: 14 ott 2012, 13:05
Località: Forlì Ronco rotonda Aeroporto

Re: Nowcasting inverno '19/'20

Messaggioda Geloneve » 11 dic 2019, 8:40

Cielo sereno, vento debole da W e temperatura minima di -0,3°c.

Ieri temperatura minima ritoccata a +2,7°c e temperatura massima di +12,0°c.

Peccato per il vento senza il quale le temperatura sarebbe potuta scendere sino a -4°c.
W il GELO e la NEVE!
==============================================================================================
Stazione meteo Davis Vantage Pro 2 - Loc. San Biagio - Faenza (RA) - 32 m. S.L.M. - tra Faenza e Forlì, a 851 m. dal comune di Forlì: http://geloneve.dyndns.org/ Webcam: http://www.geloneve.it/webcam2/sanbiagio.jpg
Avatar utente
Geloneve
 
Messaggi: 10571
Iscritto il: 19 nov 2010, 17:17
Località: San Biagio (RA) - 32 m. S.L.M. - Tra Forlì (FC) e Faenza (RA), a 851 m. dal comune di Forlì (FC)

PrecedenteProssimo

Torna a Meteorologia

Chi c’è in linea

Visitano il forum: Nessuno e 4 ospiti

cron